Terminal Aerodrome Forecast
Issued by NWS

Home | Current Version | Previous Version | Text Only | Print | Product List | Glossary On
Versions: 1 2 3 4 5 6 7 8 9 10 11 12 13 14 15 16 17 18 19 20 21 22 23 24 25 26 27 28 29
000
FTUS41 KBOX 020537
TAFACK
TAF
KACK 020537Z 0206/0306 12004KT P6SM BKN150
     FM021000 09006KT P6SM -RA OVC060
     FM021200 08007KT 3SM -RA BR OVC060
     FM022300 11007KT P6SM OVC008
     FM030000 11006KT 2SM BR OVC008
     FM030300 00000KT 2SM BR OVC008=

USA.gov is the U.S. government's official web portal to all federal, state and local government web resources and services.